sensor_id;sensor_type;location;lat;lon;timestamp;pressure;altitude;pressure_sealevel;temperature;humidity
57628;BME280;43451;49.060;10.616;2023-03-24T00:01:37;95946.94;;;10.75;100.00
57628;BME280;43451;49.060;10.616;2023-03-24T00:04:03;95957.09;;;10.98;100.00
57628;BME280;43451;49.060;10.616;2023-03-24T00:06:28;95967.78;;;11.08;100.00
57628;BME280;43451;49.060;10.616;2023-03-24T00:08:58;95971.66;;;11.11;100.00
57628;BME280;43451;49.060;10.616;2023-03-24T00:11:24;95975.81;;;10.92;100.00
57628;BME280;43451;49.060;10.616;2023-03-24T00:13:50;95979.47;;;10.55;100.00
57628;BME280;43451;49.060;10.616;2023-03-24T00:16:15;95973.16;;;10.61;100.00
57628;BME280;43451;49.060;10.616;2023-03-24T00:18:43;95971.78;;;10.77;100.00
57628;BME280;43451;49.060;10.616;2023-03-24T00:21:09;95956.97;;;11.05;100.00
57628;BME280;43451;49.060;10.616;2023-03-24T00:23:35;95970.69;;;10.98;100.00
57628;BME280;43451;49.060;10.616;2023-03-24T00:26:08;95960.00;;;11.10;100.00
57628;BME280;43451;49.060;10.616;2023-03-24T00:28:36;95948.81;;;11.28;100.00
57628;BME280;43451;49.060;10.616;2023-03-24T00:31:04;95958.22;;;11.24;100.00
57628;BME280;43451;49.060;10.616;2023-03-24T00:33:30;95957.22;;;11.37;100.00
57628;BME280;43451;49.060;10.616;2023-03-24T00:35:57;95956.31;;;11.44;100.00
57628;BME280;43451;49.060;10.616;2023-03-24T00:38:23;95956.22;;;11.51;100.00
57628;BME280;43451;49.060;10.616;2023-03-24T00:40:48;95959.63;;;11.32;100.00
57628;BME280;43451;49.060;10.616;2023-03-24T00:43:14;95945.94;;;11.15;100.00
57628;BME280;43451;49.060;10.616;2023-03-24T00:45:40;95948.00;;;11.08;100.00
57628;BME280;43451;49.060;10.616;2023-03-24T00:48:17;95975.41;;;10.93;100.00
57628;BME280;43451;49.060;10.616;2023-03-24T00:50:46;95988.53;;;10.99;100.00
57628;BME280;43451;49.060;10.616;2023-03-24T00:53:16;95977.91;;;11.08;100.00
57628;BME280;43451;49.060;10.616;2023-03-24T00:55:42;95970.63;;;11.25;100.00
57628;BME280;43451;49.060;10.616;2023-03-24T00:58:10;95975.72;;;11.46;100.00
57628;BME280;43451;49.060;10.616;2023-03-24T01:00:43;95974.44;;;11.51;100.00
57628;BME280;43451;49.060;10.616;2023-03-24T01:03:08;95978.50;;;11.43;100.00
57628;BME280;43451;49.060;10.616;2023-03-24T01:05:33;95988.13;;;11.47;100.00
57628;BME280;43451;49.060;10.616;2023-03-24T01:08:00;95988.66;;;11.62;100.00
57628;BME280;43451;49.060;10.616;2023-03-24T01:10:29;95986.16;;;11.48;100.00
57628;BME280;43451;49.060;10.616;2023-03-24T01:12:55;95975.44;;;11.60;100.00
57628;BME280;43451;49.060;10.616;2023-03-24T01:15:22;95981.63;;;11.41;100.00
57628;BME280;43451;49.060;10.616;2023-03-24T01:17:49;95973.22;;;11.32;100.00
57628;BME280;43451;49.060;10.616;2023-03-24T01:20:17;95975.13;;;11.35;100.00
57628;BME280;43451;49.060;10.616;2023-03-24T01:22:43;95984.06;;;11.35;100.00
57628;BME280;43451;49.060;10.616;2023-03-24T01:25:15;95970.22;;;11.26;100.00
57628;BME280;43451;49.060;10.616;2023-03-24T01:27:44;95954.50;;;11.14;100.00
57628;BME280;43451;49.060;10.616;2023-03-24T01:30:11;95953.38;;;10.88;100.00
57628;BME280;43451;49.060;10.616;2023-03-24T01:32:37;95945.41;;;11.01;100.00
57628;BME280;43451;49.060;10.616;2023-03-24T01:35:03;95936.47;;;10.77;100.00
57628;BME280;43451;49.060;10.616;2023-03-24T01:37:28;95932.78;;;10.87;100.00
57628;BME280;43451;49.060;10.616;2023-03-24T01:39:54;95936.66;;;10.62;100.00
57628;BME280;43451;49.060;10.616;2023-03-24T01:42:21;95927.41;;;10.60;100.00
57628;BME280;43451;49.060;10.616;2023-03-24T01:44:50;95926.19;;;10.88;100.00
57628;BME280;43451;49.060;10.616;2023-03-24T01:47:16;95919.44;;;10.73;100.00
57628;BME280;43451;49.060;10.616;2023-03-24T01:49:50;95909.34;;;10.73;100.00
57628;BME280;43451;49.060;10.616;2023-03-24T01:52:17;95896.97;;;10.68;100.00
57628;BME280;43451;49.060;10.616;2023-03-24T01:54:51;95899.06;;;10.84;100.00
57628;BME280;43451;49.060;10.616;2023-03-24T01:57:19;95895.69;;;10.77;100.00
57628;BME280;43451;49.060;10.616;2023-03-24T01:59:47;95887.84;;;10.82;100.00
57628;BME280;43451;49.060;10.616;2023-03-24T02:02:13;95882.75;;;10.61;100.00
57628;BME280;43451;49.060;10.616;2023-03-24T02:04:42;95874.41;;;10.75;100.00
57628;BME280;43451;49.060;10.616;2023-03-24T02:07:13;95869.63;;;10.56;100.00
57628;BME280;43451;49.060;10.616;2023-03-24T02:09:40;95866.63;;;10.50;100.00
57628;BME280;43451;49.060;10.616;2023-03-24T02:12:05;95870.19;;;10.47;100.00
57628;BME280;43451;49.060;10.616;2023-03-24T02:14:31;95856.84;;;10.56;100.00
57628;BME280;43451;49.060;10.616;2023-03-24T02:27:37;95842.25;;;10.70;100.00
57628;BME280;43451;49.060;10.616;2023-03-24T02:40:39;95820.22;;;10.64;100.00
57628;BME280;43451;49.060;10.616;2023-03-24T02:43:16;95825.91;;;10.50;100.00
57628;BME280;43451;49.060;10.616;2023-03-24T02:45:48;95817.25;;;10.55;100.00
57628;BME280;43451;49.060;10.616;2023-03-24T02:51:09;95812.84;;;10.41;100.00
57628;BME280;43451;49.060;10.616;2023-03-24T02:56:37;95806.34;;;10.59;100.00
57628;BME280;43451;49.060;10.616;2023-03-24T02:59:04;95802.63;;;10.49;100.00
57628;BME280;43451;49.060;10.616;2023-03-24T03:01:38;95805.50;;;10.62;100.00
57628;BME280;43451;49.060;10.616;2023-03-24T03:04:13;95808.28;;;10.58;100.00
57628;BME280;43451;49.060;10.616;2023-03-24T03:06:42;95810.44;;;10.47;100.00
57628;BME280;43451;49.060;10.616;2023-03-24T03:09:10;95799.66;;;10.40;100.00
57628;BME280;43451;49.060;10.616;2023-03-24T03:11:37;95804.88;;;10.31;100.00
57628;BME280;43451;49.060;10.616;2023-03-24T03:14:11;95796.28;;;10.05;100.00
57628;BME280;43451;49.060;10.616;2023-03-24T03:16:39;95795.00;;;9.90;100.00
57628;BME280;43451;49.060;10.616;2023-03-24T03:22:09;95779.19;;;10.08;100.00
57628;BME280;43451;49.060;10.616;2023-03-24T03:24:38;95789.91;;;10.19;100.00
57628;BME280;43451;49.060;10.616;2023-03-24T03:27:06;95786.50;;;10.11;100.00
57628;BME280;43451;49.060;10.616;2023-03-24T03:29:34;95791.38;;;10.23;100.00
57628;BME280;43451;49.060;10.616;2023-03-24T03:32:01;95792.41;;;10.33;100.00
57628;BME280;43451;49.060;10.616;2023-03-24T03:37:11;95785.41;;;10.59;100.00
57628;BME280;43451;49.060;10.616;2023-03-24T03:39:39;95782.78;;;10.76;100.00
57628;BME280;43451;49.060;10.616;2023-03-24T03:42:09;95781.16;;;10.78;100.00
57628;BME280;43451;49.060;10.616;2023-03-24T03:44:34;95777.59;;;11.05;100.00
57628;BME280;43451;49.060;10.616;2023-03-24T03:47:00;95767.91;;;11.24;100.00
57628;BME280;43451;49.060;10.616;2023-03-24T03:49:25;95770.06;;;11.32;100.00
57628;BME280;43451;49.060;10.616;2023-03-24T03:51:51;95770.19;;;11.25;100.00
57628;BME280;43451;49.060;10.616;2023-03-24T03:54:18;95775.84;;;11.14;100.00
57628;BME280;43451;49.060;10.616;2023-03-24T03:56:44;95769.78;;;11.07;100.00
57628;BME280;43451;49.060;10.616;2023-03-24T03:59:22;95771.47;;;11.21;100.00
57628;BME280;43451;49.060;10.616;2023-03-24T04:01:47;95762.88;;;11.22;100.00
57628;BME280;43451;49.060;10.616;2023-03-24T04:06:59;95764.53;;;10.96;100.00
57628;BME280;43451;49.060;10.616;2023-03-24T04:12:16;95767.63;;;10.98;100.00
57628;BME280;43451;49.060;10.616;2023-03-24T04:22:21;95776.19;;;10.97;100.00
57628;BME280;43451;49.060;10.616;2023-03-24T04:25:03;95774.50;;;11.03;100.00
57628;BME280;43451;49.060;10.616;2023-03-24T04:32:58;95778.59;;;10.71;100.00
57628;BME280;43451;49.060;10.616;2023-03-24T04:35:26;95779.72;;;10.74;100.00
57628;BME280;43451;49.060;10.616;2023-03-24T04:38:08;95781.81;;;10.86;100.00
57628;BME280;43451;49.060;10.616;2023-03-24T04:40:35;95781.50;;;10.60;100.00
57628;BME280;43451;49.060;10.616;2023-03-24T04:43:06;95781.78;;;10.66;100.00
57628;BME280;43451;49.060;10.616;2023-03-24T04:45:33;95778.75;;;10.84;100.00
57628;BME280;43451;49.060;10.616;2023-03-24T04:48:01;95778.28;;;10.89;100.00
57628;BME280;43451;49.060;10.616;2023-03-24T04:50:38;95773.31;;;10.84;100.00
57628;BME280;43451;49.060;10.616;2023-03-24T04:53:04;95769.75;;;10.87;100.00
57628;BME280;43451;49.060;10.616;2023-03-24T04:57:56;95766.03;;;11.01;100.00
57628;BME280;43451;49.060;10.616;2023-03-24T05:00:21;95764.13;;;11.18;100.00
57628;BME280;43451;49.060;10.616;2023-03-24T05:02:47;95767.75;;;10.91;100.00
57628;BME280;43451;49.060;10.616;2023-03-24T05:05:12;95767.41;;;10.89;100.00
57628;BME280;43451;49.060;10.616;2023-03-24T05:07:38;95761.22;;;10.88;100.00
57628;BME280;43451;49.060;10.616;2023-03-24T05:10:04;95762.13;;;11.02;100.00
57628;BME280;43451;49.060;10.616;2023-03-24T05:12:30;95752.69;;;11.06;100.00
57628;BME280;43451;49.060;10.616;2023-03-24T05:14:55;95762.41;;;11.07;100.00
57628;BME280;43451;49.060;10.616;2023-03-24T05:17:20;95758.84;;;11.10;100.00
57628;BME280;43451;49.060;10.616;2023-03-24T05:19:46;95764.13;;;11.18;100.00
57628;BME280;43451;49.060;10.616;2023-03-24T05:22:11;95768.53;;;11.11;100.00
57628;BME280;43451;49.060;10.616;2023-03-24T05:24:36;95777.38;;;11.15;100.00
57628;BME280;43451;49.060;10.616;2023-03-24T05:27:04;95769.06;;;11.03;100.00
57628;BME280;43451;49.060;10.616;2023-03-24T05:29:29;95765.81;;;11.11;100.00
57628;BME280;43451;49.060;10.616;2023-03-24T05:31:55;95772.44;;;11.10;100.00
57628;BME280;43451;49.060;10.616;2023-03-24T05:34:20;95772.50;;;11.07;100.00
57628;BME280;43451;49.060;10.616;2023-03-24T05:36:46;95762.72;;;11.09;100.00
57628;BME280;43451;49.060;10.616;2023-03-24T05:39:12;95771.03;;;10.82;100.00
57628;BME280;43451;49.060;10.616;2023-03-24T05:41:37;95772.25;;;10.78;100.00
57628;BME280;43451;49.060;10.616;2023-03-24T05:44:02;95756.69;;;10.82;100.00
57628;BME280;43451;49.060;10.616;2023-03-24T05:46:28;95756.53;;;10.89;100.00
57628;BME280;43451;49.060;10.616;2023-03-24T05:48:53;95737.50;;;10.89;100.00
57628;BME280;43451;49.060;10.616;2023-03-24T05:51:18;95740.97;;;10.69;100.00
57628;BME280;43451;49.060;10.616;2023-03-24T05:53:44;95737.53;;;10.65;100.00
57628;BME280;43451;49.060;10.616;2023-03-24T05:56:09;95747.09;;;10.74;100.00
57628;BME280;43451;49.060;10.616;2023-03-24T05:58:37;95753.16;;;10.61;100.00
57628;BME280;43451;49.060;10.616;2023-03-24T06:01:10;95756.22;;;10.63;100.00
57628;BME280;43451;49.060;10.616;2023-03-24T06:03:38;95754.34;;;10.60;100.00
57628;BME280;43451;49.060;10.616;2023-03-24T06:06:05;95753.16;;;10.81;100.00
57628;BME280;43451;49.060;10.616;2023-03-24T06:08:32;95754.03;;;10.55;100.00
57628;BME280;43451;49.060;10.616;2023-03-24T06:11:01;95758.94;;;10.40;100.00
57628;BME280;43451;49.060;10.616;2023-03-24T06:13:27;95765.72;;;10.75;100.00
57628;BME280;43451;49.060;10.616;2023-03-24T06:15:53;95756.75;;;10.98;100.00
57628;BME280;43451;49.060;10.616;2023-03-24T06:18:22;95768.38;;;10.79;100.00
57628;BME280;43451;49.060;10.616;2023-03-24T06:20:48;95775.09;;;10.71;100.00
57628;BME280;43451;49.060;10.616;2023-03-24T06:23:15;95777.59;;;10.61;100.00
57628;BME280;43451;49.060;10.616;2023-03-24T06:25:40;95781.47;;;10.37;100.00
57628;BME280;43451;49.060;10.616;2023-03-24T06:28:11;95786.56;;;10.35;100.00
57628;BME280;43451;49.060;10.616;2023-03-24T06:30:38;95779.91;;;10.39;100.00
57628;BME280;43451;49.060;10.616;2023-03-24T06:33:04;95788.78;;;10.43;100.00
57628;BME280;43451;49.060;10.616;2023-03-24T06:35:30;95794.66;;;10.38;100.00
57628;BME280;43451;49.060;10.616;2023-03-24T06:37:55;95794.13;;;10.47;100.00
57628;BME280;43451;49.060;10.616;2023-03-24T06:40:20;95800.38;;;10.67;100.00
57628;BME280;43451;49.060;10.616;2023-03-24T06:42:46;95806.88;;;10.74;100.00
57628;BME280;43451;49.060;10.616;2023-03-24T06:45:13;95815.31;;;10.79;100.00
57628;BME280;43451;49.060;10.616;2023-03-24T06:47:38;95815.72;;;11.01;100.00
57628;BME280;43451;49.060;10.616;2023-03-24T06:50:04;95820.88;;;11.15;100.00
57628;BME280;43451;49.060;10.616;2023-03-24T06:52:31;95827.91;;;11.13;100.00
57628;BME280;43451;49.060;10.616;2023-03-24T06:54:56;95846.38;;;11.22;100.00
57628;BME280;43451;49.060;10.616;2023-03-24T06:57:22;95837.84;;;11.43;100.00
57628;BME280;43451;49.060;10.616;2023-03-24T06:59:47;95839.22;;;11.71;100.00
57628;BME280;43451;49.060;10.616;2023-03-24T07:02:12;95861.84;;;11.48;100.00
57628;BME280;43451;49.060;10.616;2023-03-24T07:04:38;95859.22;;;11.41;100.00
57628;BME280;43451;49.060;10.616;2023-03-24T07:07:03;95851.84;;;11.22;100.00
57628;BME280;43451;49.060;10.616;2023-03-24T07:09:28;95855.75;;;11.21;100.00
57628;BME280;43451;49.060;10.616;2023-03-24T07:11:54;95864.19;;;11.46;100.00
57628;BME280;43451;49.060;10.616;2023-03-24T07:14:19;95866.91;;;11.46;100.00
57628;BME280;43451;49.060;10.616;2023-03-24T07:16:46;95866.56;;;11.44;100.00
57628;BME280;43451;49.060;10.616;2023-03-24T07:19:11;95871.66;;;11.42;100.00
57628;BME280;43451;49.060;10.616;2023-03-24T07:21:36;95875.63;;;11.37;100.00
57628;BME280;43451;49.060;10.616;2023-03-24T07:24:02;95874.59;;;11.51;100.00
57628;BME280;43451;49.060;10.616;2023-03-24T07:26:30;95866.84;;;11.50;100.00
57628;BME280;43451;49.060;10.616;2023-03-24T07:28:55;95867.88;;;11.76;100.00
57628;BME280;43451;49.060;10.616;2023-03-24T07:31:21;95858.41;;;11.84;100.00
57628;BME280;43451;49.060;10.616;2023-03-24T07:33:46;95865.44;;;11.81;100.00
57628;BME280;43451;49.060;10.616;2023-03-24T07:36:12;95863.91;;;12.00;100.00
57628;BME280;43451;49.060;10.616;2023-03-24T07:38:37;95858.75;;;12.06;100.00
57628;BME280;43451;49.060;10.616;2023-03-24T07:41:02;95859.53;;;12.23;100.00
57628;BME280;43451;49.060;10.616;2023-03-24T07:43:28;95861.06;;;12.24;100.00
57628;BME280;43451;49.060;10.616;2023-03-24T07:45:53;95857.84;;;12.29;100.00
57628;BME280;43451;49.060;10.616;2023-03-24T07:48:19;95867.81;;;12.52;100.00
57628;BME280;43451;49.060;10.616;2023-03-24T07:50:44;95866.19;;;12.54;100.00
57628;BME280;43451;49.060;10.616;2023-03-24T07:53:09;95865.88;;;12.69;100.00
57628;BME280;43451;49.060;10.616;2023-03-24T07:55:38;95866.72;;;12.82;100.00
57628;BME280;43451;49.060;10.616;2023-03-24T07:58:04;95874.06;;;12.69;100.00
57628;BME280;43451;49.060;10.616;2023-03-24T08:00:30;95863.91;;;12.86;100.00
57628;BME280;43451;49.060;10.616;2023-03-24T08:02:57;95870.63;;;12.97;100.00
57628;BME280;43451;49.060;10.616;2023-03-24T08:05:23;95863.72;;;12.93;100.00
57628;BME280;43451;49.060;10.616;2023-03-24T08:07:50;95876.41;;;12.99;100.00
57628;BME280;43451;49.060;10.616;2023-03-24T08:10:19;95875.66;;;12.83;100.00
57628;BME280;43451;49.060;10.616;2023-03-24T08:12:45;95869.91;;;13.10;100.00
57628;BME280;43451;49.060;10.616;2023-03-24T08:15:11;95880.69;;;13.00;100.00
57628;BME280;43451;49.060;10.616;2023-03-24T08:17:37;95885.03;;;12.98;100.00
57628;BME280;43451;49.060;10.616;2023-03-24T08:20:03;95889.09;;;13.06;100.00
57628;BME280;43451;49.060;10.616;2023-03-24T08:24:57;95893.03;;;12.72;100.00
57628;BME280;43451;49.060;10.616;2023-03-24T08:27:22;95899.34;;;12.69;100.00
57628;BME280;43451;49.060;10.616;2023-03-24T08:29:48;95913.72;;;12.70;100.00
57628;BME280;43451;49.060;10.616;2023-03-24T08:32:13;95907.94;;;12.68;100.00
57628;BME280;43451;49.060;10.616;2023-03-24T08:34:39;95911.09;;;12.30;100.00
57628;BME280;43451;49.060;10.616;2023-03-24T08:37:04;95913.59;;;12.24;100.00
57628;BME280;43451;49.060;10.616;2023-03-24T08:39:29;95907.72;;;12.26;100.00
57628;BME280;43451;49.060;10.616;2023-03-24T08:41:56;95916.72;;;12.23;100.00
57628;BME280;43451;49.060;10.616;2023-03-24T08:44:21;95925.06;;;11.96;100.00
57628;BME280;43451;49.060;10.616;2023-03-24T08:46:47;95926.75;;;11.90;100.00
57628;BME280;43451;49.060;10.616;2023-03-24T08:49:12;95935.72;;;12.06;100.00
57628;BME280;43451;49.060;10.616;2023-03-24T08:51:38;95936.97;;;11.82;100.00
57628;BME280;43451;49.060;10.616;2023-03-24T08:54:03;95949.28;;;11.90;100.00
57628;BME280;43451;49.060;10.616;2023-03-24T08:56:29;95948.69;;;11.79;100.00
57628;BME280;43451;49.060;10.616;2023-03-24T08:58:55;95957.09;;;11.88;100.00
57628;BME280;43451;49.060;10.616;2023-03-24T09:01:22;95953.34;;;11.58;100.00
57628;BME280;43451;49.060;10.616;2023-03-24T09:03:47;95962.00;;;11.73;100.00
57628;BME280;43451;49.060;10.616;2023-03-24T09:08:53;95955.94;;;11.66;100.00
57628;BME280;43451;49.060;10.616;2023-03-24T09:11:19;95954.13;;;11.79;100.00
57628;BME280;43451;49.060;10.616;2023-03-24T09:13:45;95960.53;;;11.69;100.00
57628;BME280;43451;49.060;10.616;2023-03-24T09:16:11;95946.56;;;11.67;100.00
57628;BME280;43451;49.060;10.616;2023-03-24T09:18:37;95943.59;;;11.61;100.00
57628;BME280;43451;49.060;10.616;2023-03-24T09:21:02;95946.03;;;11.75;100.00
57628;BME280;43451;49.060;10.616;2023-03-24T09:23:28;95936.16;;;11.85;100.00
57628;BME280;43451;49.060;10.616;2023-03-24T09:25:55;95931.31;;;11.73;100.00
57628;BME280;43451;49.060;10.616;2023-03-24T09:28:20;95924.13;;;11.82;100.00
57628;BME280;43451;49.060;10.616;2023-03-24T09:30:46;95913.97;;;11.87;100.00
57628;BME280;43451;49.060;10.616;2023-03-24T09:33:11;95908.03;;;11.92;100.00
57628;BME280;43451;49.060;10.616;2023-03-24T09:35:37;95885.41;;;11.95;100.00
57628;BME280;43451;49.060;10.616;2023-03-24T09:38:03;95832.78;;;11.81;100.00
57628;BME280;43451;49.060;10.616;2023-03-24T09:40:34;95822.19;;;11.87;100.00
57628;BME280;43451;49.060;10.616;2023-03-24T09:43:07;95782.00;;;11.75;100.00
57628;BME280;43451;49.060;10.616;2023-03-24T09:45:37;95759.03;;;11.76;100.00
57628;BME280;43451;49.060;10.616;2023-03-24T09:50:59;95876.63;;;11.67;100.00
57628;BME280;43451;49.060;10.616;2023-03-24T09:55:52;95885.41;;;11.55;100.00
57628;BME280;43451;49.060;10.616;2023-03-24T09:58:17;95883.97;;;11.90;100.00
57628;BME280;43451;49.060;10.616;2023-03-24T10:00:44;95867.50;;;12.14;100.00
57628;BME280;43451;49.060;10.616;2023-03-24T10:03:20;95872.00;;;12.40;100.00
57628;BME280;43451;49.060;10.616;2023-03-24T10:08:28;95883.25;;;12.75;100.00
57628;BME280;43451;49.060;10.616;2023-03-24T10:11:12;95873.88;;;12.92;100.00
57628;BME280;43451;49.060;10.616;2023-03-24T10:19:01;95873.31;;;13.30;100.00
57628;BME280;43451;49.060;10.616;2023-03-24T10:21:29;95885.25;;;13.36;100.00
57628;BME280;43451;49.060;10.616;2023-03-24T10:23:59;95874.84;;;13.31;100.00
57628;BME280;43451;49.060;10.616;2023-03-24T10:26:33;95891.66;;;13.30;100.00
57628;BME280;43451;49.060;10.616;2023-03-24T10:31:35;95889.88;;;12.90;100.00
57628;BME280;43451;49.060;10.616;2023-03-24T10:34:01;95889.09;;;12.90;100.00
57628;BME280;43451;49.060;10.616;2023-03-24T10:36:27;95870.03;;;12.90;100.00
57628;BME280;43451;49.060;10.616;2023-03-24T10:38:53;95866.56;;;12.73;100.00
57628;BME280;43451;49.060;10.616;2023-03-24T10:41:23;95878.56;;;12.92;100.00
57628;BME280;43451;49.060;10.616;2023-03-24T10:43:49;95881.25;;;13.08;100.00
57628;BME280;43451;49.060;10.616;2023-03-24T10:46:19;95886.38;;;13.06;100.00
57628;BME280;43451;49.060;10.616;2023-03-24T10:48:47;95880.75;;;12.97;100.00
57628;BME280;43451;49.060;10.616;2023-03-24T10:51:24;95878.97;;;13.07;100.00
57628;BME280;43451;49.060;10.616;2023-03-24T10:53:50;95885.75;;;13.15;100.00
57628;BME280;43451;49.060;10.616;2023-03-24T10:56:37;95889.34;;;13.12;100.00
57628;BME280;43451;49.060;10.616;2023-03-24T10:59:05;95891.88;;;13.19;100.00
57628;BME280;43451;49.060;10.616;2023-03-24T11:01:39;95882.78;;;13.26;100.00
57628;BME280;43451;49.060;10.616;2023-03-24T11:04:05;95884.38;;;13.39;100.00
57628;BME280;43451;49.060;10.616;2023-03-24T11:06:31;95880.00;;;13.58;100.00
57628;BME280;43451;49.060;10.616;2023-03-24T11:09:17;95888.00;;;13.78;100.00
57628;BME280;43451;49.060;10.616;2023-03-24T11:11:44;95879.75;;;13.94;100.00
57628;BME280;43451;49.060;10.616;2023-03-24T11:14:22;95872.75;;;13.93;100.00
57628;BME280;43451;49.060;10.616;2023-03-24T11:16:50;95877.00;;;13.94;100.00
57628;BME280;43451;49.060;10.616;2023-03-24T11:19:20;95878.47;;;14.12;100.00
57628;BME280;43451;49.060;10.616;2023-03-24T11:21:47;95869.03;;;13.87;100.00
57628;BME280;43451;49.060;10.616;2023-03-24T11:24:14;95878.47;;;14.12;100.00
57628;BME280;43451;49.060;10.616;2023-03-24T11:26:43;95880.66;;;14.17;100.00
57628;BME280;43451;49.060;10.616;2023-03-24T11:29:13;95879.00;;;14.07;100.00
57628;BME280;43451;49.060;10.616;2023-03-24T11:31:39;95874.31;;;14.20;100.00
57628;BME280;43451;49.060;10.616;2023-03-24T11:34:09;95871.69;;;14.29;100.00
57628;BME280;43451;49.060;10.616;2023-03-24T11:36:39;95870.47;;;14.17;100.00
57628;BME280;43451;49.060;10.616;2023-03-24T11:39:10;95868.19;;;14.16;100.00
57628;BME280;43451;49.060;10.616;2023-03-24T11:41:37;95866.47;;;14.22;100.00
57628;BME280;43451;49.060;10.616;2023-03-24T11:44:19;95875.97;;;14.30;100.00
57628;BME280;43451;49.060;10.616;2023-03-24T11:46:46;95869.31;;;14.31;100.00
57628;BME280;43451;49.060;10.616;2023-03-24T11:49:12;95859.00;;;14.10;100.00
57628;BME280;43451;49.060;10.616;2023-03-24T11:51:40;95862.75;;;14.29;100.00
57628;BME280;43451;49.060;10.616;2023-03-24T11:54:09;95860.91;;;14.51;100.00
57628;BME280;43451;49.060;10.616;2023-03-24T11:59:06;95854.66;;;14.38;100.00
57628;BME280;43451;49.060;10.616;2023-03-24T12:01:39;95847.47;;;14.57;100.00
57628;BME280;43451;49.060;10.616;2023-03-24T12:12:04;95854.19;;;14.78;100.00
57628;BME280;43451;49.060;10.616;2023-03-24T12:17:51;95824.47;;;14.67;98.68
57628;BME280;43451;49.060;10.616;2023-03-24T12:25:52;95840.56;;;15.13;97.64
57628;BME280;43451;49.060;10.616;2023-03-24T12:36:12;95826.59;;;15.54;97.54
57628;BME280;43451;49.060;10.616;2023-03-24T12:38:46;95826.78;;;15.82;89.87
57628;BME280;43451;49.060;10.616;2023-03-24T12:41:26;95815.47;;;15.71;100.00
57628;BME280;43451;49.060;10.616;2023-03-24T12:50:16;95797.44;;;15.61;93.71
57628;BME280;43451;49.060;10.616;2023-03-24T12:57:58;95812.50;;;15.21;89.48
57628;BME280;43451;49.060;10.616;2023-03-24T13:00:27;95816.88;;;14.84;92.18
57628;BME280;43451;49.060;10.616;2023-03-24T13:02:56;95823.59;;;14.70;94.48
57628;BME280;43451;49.060;10.616;2023-03-24T13:05:30;95825.25;;;14.55;93.65
57628;BME280;43451;49.060;10.616;2023-03-24T13:07:56;95820.31;;;14.75;96.63
57628;BME280;43451;49.060;10.616;2023-03-24T13:10:26;95815.75;;;14.34;96.16
57628;BME280;43451;49.060;10.616;2023-03-24T13:13:05;95821.41;;;14.39;97.20
57628;BME280;43451;49.060;10.616;2023-03-24T13:15:39;95803.16;;;14.36;94.07
57628;BME280;43451;49.060;10.616;2023-03-24T13:20:32;95799.69;;;14.23;92.13
57628;BME280;43451;49.060;10.616;2023-03-24T13:23:01;95804.16;;;13.91;94.66
57628;BME280;43451;49.060;10.616;2023-03-24T13:27:59;95824.59;;;14.00;94.92
57628;BME280;43451;49.060;10.616;2023-03-24T13:32:57;95811.47;;;14.07;93.81
57628;BME280;43451;49.060;10.616;2023-03-24T13:38:15;95818.50;;;14.34;91.19
57628;BME280;43451;49.060;10.616;2023-03-24T13:40:39;95812.47;;;14.52;87.76
57628;BME280;43451;49.060;10.616;2023-03-24T13:43:06;95836.28;;;14.64;85.69
57628;BME280;43451;49.060;10.616;2023-03-24T13:45:45;95823.81;;;14.50;90.30
57628;BME280;43451;49.060;10.616;2023-03-24T13:48:39;95806.78;;;14.33;90.29
57628;BME280;43451;49.060;10.616;2023-03-24T13:53:38;95810.94;;;14.51;93.53
57628;BME280;43451;49.060;10.616;2023-03-24T13:56:07;95795.84;;;14.33;90.23
57628;BME280;43451;49.060;10.616;2023-03-24T13:58:47;95801.88;;;14.54;88.45
57628;BME280;43451;49.060;10.616;2023-03-24T14:01:18;95802.78;;;14.85;89.48
57628;BME280;43451;49.060;10.616;2023-03-24T14:04:19;95809.78;;;14.86;87.82
57628;BME280;43451;49.060;10.616;2023-03-24T14:06:52;95797.16;;;15.02;86.30
57628;BME280;43451;49.060;10.616;2023-03-24T14:09:19;95803.50;;;14.99;88.91
57628;BME280;43451;49.060;10.616;2023-03-24T14:12:06;95801.28;;;14.84;89.02
57628;BME280;43451;49.060;10.616;2023-03-24T14:14:35;95804.28;;;14.52;82.53
57628;BME280;43451;49.060;10.616;2023-03-24T14:19:36;95801.41;;;14.30;87.10
57628;BME280;43451;49.060;10.616;2023-03-24T14:24:37;95799.56;;;14.14;88.60
57628;BME280;43451;49.060;10.616;2023-03-24T14:29:49;95799.25;;;13.86;88.42
57628;BME280;43451;49.060;10.616;2023-03-24T14:32:16;95828.38;;;13.64;89.29
57628;BME280;43451;49.060;10.616;2023-03-24T14:34:51;95894.91;;;13.54;88.53
57628;BME280;43451;49.060;10.616;2023-03-24T14:37:17;95874.53;;;12.96;91.59
57628;BME280;43451;49.060;10.616;2023-03-24T14:39:45;95875.41;;;12.61;94.95
57628;BME280;43451;49.060;10.616;2023-03-24T14:42:26;95880.97;;;12.21;97.89
57628;BME280;43451;49.060;10.616;2023-03-24T14:44:53;95876.69;;;12.03;99.29
57628;BME280;43451;49.060;10.616;2023-03-24T14:49:51;95906.81;;;11.53;100.00
57628;BME280;43451;49.060;10.616;2023-03-24T14:54:56;95912.56;;;11.35;100.00
57628;BME280;43451;49.060;10.616;2023-03-24T14:57:38;95946.16;;;11.25;100.00
57628;BME280;43451;49.060;10.616;2023-03-24T15:00:06;95927.25;;;11.18;100.00
57628;BME280;43451;49.060;10.616;2023-03-24T15:02:43;95928.66;;;11.26;100.00
57628;BME280;43451;49.060;10.616;2023-03-24T15:10:26;95925.38;;;10.91;100.00